Startpagina
METAR-TAF:

METAR-TAF

Vliegvelden :

Wasilla, Alaska, Verenigde Staten

breedte: 61-34-19N, lengte: 149-32-26W, hoogte: 106 m

Actueel weer

Dit bericht is 27 minuten geleden gemaakt, om 16:56 UTC
Weinig wind
Temperatuur -24°C
Vochtigheid 76%
Druk 992 hPa
Zicht: 16.1 km
Onbewolkt

METAR: PAWS 261656Z AUTO 00000KT 10SM CLR M24/M27 A2930 RMK AO2 SLP934 T12391267 FZRANO

Tijdstip: 08:23 (17:23 UTC)


TAF: ontbreekt

Waarnemingen en weersverwachtingen van meer dan 4000 vliegvelden (METAR en TAF).

De beschikbare stations zijn de gele en rode punten op de kaart.

Ga met uw muis naar het station om de naam te zien.

Klik dan om waarnemingen en weersverwachtingen te zien.

kaart wijzigen: klik op de groene knoppen met een zwart kruis om in te zoomen, op de groene knop met een streepje om uit te zoomen of op de groene pijlen voor aangrenzende kaarten.


METAR-TAF: